Time;durP1;ratioP1;P1;durP2;ratioP2;P2;SDS_P1;SDS_P2;PMS_P1;PMS_P2;Temp;Humidity;BMP_temperature;BMP_pressure;BME280_temperature;BME280_humidity;BME280_pressure;Samples;Min_cycle;Max_cycle;Signal;HPM_P1;HPM_P2
2020/12/31 00:01:26;;;;;;;22.40;13.73;;;4.00;94.30;;;;;;5008115;28;20026;-67
2020/12/31 00:03:53;;;;;;;24.27;14.18;;;4.00;94.30;;;;;;5007240;28;20513;-67
2020/12/31 00:06:18;;;;;;;22.63;13.63;;;4.00;94.30;;;;;;5007602;28;20056;-67
2020/12/31 00:08:45;;;;;;;19.20;12.77;;;4.00;94.10;;;;;;5010539;28;20049;-67
2020/12/31 00:11:11;;;;;;;19.65;12.85;;;4.00;94.20;;;;;;5008991;28;20033;-67
2020/12/31 00:13:37;;;;;;;18.17;11.48;;;4.00;93.90;;;;;;5008383;28;20034;-67
2020/12/31 00:16:04;;;;;;;17.88;11.75;;;4.00;93.60;;;;;;5006574;28;20387;-67
2020/12/31 00:18:29;;;;;;;16.50;10.88;;;4.00;93.40;;;;;;5007089;28;20076;-68
2020/12/31 00:20:55;;;;;;;15.65;10.00;;;4.00;93.20;;;;;;5006653;28;20116;-67
2020/12/31 00:23:21;;;;;;;15.05;10.30;;;4.00;93.00;;;;;;5006908;28;20777;-68
2020/12/31 00:25:49;;;;;;;15.07;9.38;;;4.00;92.10;;;;;;5007364;28;21923;-68
2020/12/31 00:28:16;;;;;;;14.05;9.50;;;4.00;92.60;;;;;;5006837;28;20110;-67
2020/12/31 00:30:45;;;;;;;12.55;9.20;;;3.90;92.20;;;;;;5007138;28;20079;-67
2020/12/31 00:33:13;;;;;;;15.13;8.73;;;3.90;92.20;;;;;;5005431;28;20030;-68
2020/12/31 00:35:39;;;;;;;16.00;10.10;;;3.90;92.40;;;;;;5007437;28;20097;-68
2020/12/31 00:38:04;;;;;;;14.23;9.48;;;3.80;92.80;;;;;;5006987;28;20109;-67
2020/12/31 00:40:30;;;;;;;16.35;9.75;;;3.80;93.00;;;;;;5006528;28;20477;-67
2020/12/31 00:42:56;;;;;;;14.50;9.70;;;3.70;93.00;;;;;;5006096;28;20112;-68
2020/12/31 00:45:21;;;;;;;16.30;10.75;;;3.70;93.10;;;;;;5006316;28;20569;-68
2020/12/31 00:47:47;;;;;;;16.10;10.25;;;3.70;93.20;;;;;;5006213;28;20036;-68
2020/12/31 00:50:12;;;;;;;17.25;9.88;;;3.60;93.00;;;;;;5007205;28;20116;-68
2020/12/31 00:52:38;;;;;;;14.95;9.35;;;3.70;92.80;;;;;;5006229;28;20022;-67
2020/12/31 00:55:04;;;;;;;17.60;10.00;;;3.70;92.60;;;;;;5006929;28;20029;-68
2020/12/31 00:57:30;;;;;;;13.65;9.68;;;3.70;92.70;;;;;;5016570;28;20039;-68
2020/12/31 00:59:55;;;;;;;16.20;10.93;;;3.70;92.40;;;;;;5025667;28;20036;-68
2020/12/31 01:02:21;;;;;;;16.65;10.18;;;3.70;92.30;;;;;;5021893;28;20076;-67
2020/12/31 01:04:46;;;;;;;17.67;10.32;;;3.70;92.40;;;;;;5012108;28;20108;-68
2020/12/31 01:07:18;;;;;;;16.20;9.73;;;3.60;92.50;;;;;;5025378;28;20140;-68
2020/12/31 01:09:44;;;;;;;14.65;10.55;;;3.60;92.60;;;;;;5025646;28;20047;-68
2020/12/31 01:12:10;;;;;;;19.52;11.52;;;3.50;92.90;;;;;;5023886;28;20506;-67
2020/12/31 01:14:36;;;;;;;16.52;11.85;;;3.50;92.80;;;;;;5040378;28;20026;-67
2020/12/31 01:17:02;;;;;;;16.60;11.63;;;3.50;93.20;;;;;;5026000;28;20028;-68
2020/12/31 01:19:28;;;;;;;21.15;12.93;;;3.40;93.30;;;;;;5022645;28;20076;-67
2020/12/31 01:21:54;;;;;;;25.17;14.30;;;3.40;93.00;;;;;;5024375;28;20405;-67
2020/12/31 01:24:19;;;;;;;22.95;14.82;;;3.40;92.90;;;;;;5023054;28;20025;-67
2020/12/31 01:26:45;;;;;;;24.52;16.13;;;3.40;92.80;;;;;;5025163;28;20448;-67
2020/12/31 01:29:10;;;;;;;26.25;16.38;;;3.30;93.00;;;;;;5024478;28;20025;-68
2020/12/31 01:31:36;;;;;;;31.80;17.52;;;3.30;93.00;;;;;;5022432;28;20120;-68
2020/12/31 01:34:02;;;;;;;28.23;16.98;;;3.20;93.10;;;;;;5010871;28;20216;-67
2020/12/31 01:36:27;;;;;;;28.05;17.98;;;3.20;93.20;;;;;;5026008;28;20037;-68
2020/12/31 01:38:53;;;;;;;28.08;17.92;;;3.10;93.40;;;;;;5011582;28;20079;-68
2020/12/31 01:41:24;;;;;;;26.73;17.92;;;3.20;93.40;;;;;;5005626;28;20022;-67
2020/12/31 01:44:06;;;;;;;29.85;18.75;;;3.20;93.10;;;;;;5006493;28;20131;-67
2020/12/31 01:46:34;;;;;;;30.33;19.17;;;3.10;93.20;;;;;;5003823;28;20564;-67
2020/12/31 01:49:01;;;;;;;30.88;19.83;;;3.10;93.00;;;;;;5005855;28;20065;-68
2020/12/31 01:51:29;;;;;;;28.60;18.63;;;3.10;93.20;;;;;;5001123;28;20093;-68
2020/12/31 01:53:58;;;;;;;30.90;20.02;;;3.10;93.10;;;;;;5004911;28;20029;-67
2020/12/31 01:56:32;;;;;;;30.80;18.85;;;3.10;93.00;;;;;;5006085;28;20433;-67
2020/12/31 01:58:58;;;;;;;32.45;20.13;;;3.10;93.00;;;;;;5006518;28;20022;-67
2020/12/31 02:01:25;;;;;;;31.90;20.98;;;2.90;93.30;;;;;;5005796;28;20068;-67
2020/12/31 02:03:57;;;;;;;37.20;20.98;;;3.00;93.50;;;;;;5020500;28;20431;-67
2020/12/31 02:06:28;;;;;;;37.03;21.55;;;3.00;93.40;;;;;;5005791;28;20036;-68
2020/12/31 02:08:54;;;;;;;34.42;21.52;;;2.90;93.60;;;;;;5011494;28;20064;-68
2020/12/31 02:11:22;;;;;;;34.10;22.67;;;2.90;93.60;;;;;;5005308;28;20030;-67
2020/12/31 02:13:48;;;;;;;34.72;21.58;;;3.00;93.50;;;;;;5006869;28;20025;-67
2020/12/31 02:16:18;;;;;;;38.55;22.35;;;3.10;93.30;;;;;;5005006;28;20025;-67
2020/12/31 02:18:58;;;;;;;34.97;21.58;;;3.00;93.30;;;;;;5005715;28;20120;-67
2020/12/31 02:21:29;;;;;;;37.60;22.42;;;3.10;93.30;;;;;;5004233;28;20017;-66
2020/12/31 02:23:56;;;;;;;35.95;22.73;;;3.10;93.20;;;;;;5013334;28;20055;-67
2020/12/31 02:26:25;;;;;;;38.08;20.90;;;3.20;93.00;;;;;;5019155;28;20117;-67
2020/12/31 02:28:52;;;;;;;34.45;22.92;;;3.20;93.10;;;;;;5017923;28;20045;-67
2020/12/31 02:31:18;;;;;;;37.00;22.77;;;3.20;93.00;;;;;;5023638;28;20074;-67
2020/12/31 02:33:49;;;;;;;40.72;23.00;;;3.10;93.20;;;;;;5024882;28;20123;-69
2020/12/31 02:36:16;;;;;;;39.33;23.80;;;3.10;93.20;;;;;;5023923;28;20117;-67
2020/12/31 02:38:43;;;;;;;40.78;23.83;;;3.00;93.40;;;;;;5023708;28;20032;-67
2020/12/31 02:41:09;;;;;;;38.58;23.55;;;2.90;93.60;;;;;;5019422;28;20017;-67
2020/12/31 02:43:36;;;;;;;36.72;23.23;;;2.90;93.40;;;;;;5016452;28;20037;-67
2020/12/31 02:46:03;;;;;;;42.30;24.98;;;2.80;93.60;;;;;;5018636;28;20037;-67
2020/12/31 02:48:29;;;;;;;37.83;24.52;;;2.80;93.90;;;;;;5025709;28;20167;-66
2020/12/31 02:50:55;;;;;;;39.10;24.42;;;2.60;93.90;;;;;;5027511;28;20061;-67
2020/12/31 02:53:20;;;;;;;48.78;26.40;;;2.60;94.20;;;;;;5028168;28;20108;-67
2020/12/31 02:55:46;;;;;;;43.83;25.15;;;2.60;94.20;;;;;;5028156;28;20405;-67
2020/12/31 02:58:11;;;;;;;40.17;24.50;;;2.40;94.10;;;;;;5029178;28;20029;-67
2020/12/31 03:00:37;;;;;;;46.97;25.73;;;2.40;94.60;;;;;;5025717;28;20127;-67
2020/12/31 03:03:02;;;;;;;45.88;26.33;;;2.40;94.70;;;;;;5022183;28;20155;-68
2020/12/31 03:05:28;;;;;;;46.13;25.42;;;2.40;94.50;;;;;;5025632;28;20505;-67
2020/12/31 03:07:54;;;;;;;49.45;26.13;;;2.40;94.60;;;;;;5028880;28;20021;-67
2020/12/31 03:10:19;;;;;;;46.22;27.50;;;2.40;94.60;;;;;;5025021;28;20108;-67
2020/12/31 03:12:45;;;;;;;48.85;27.20;;;2.20;94.50;;;;;;5028380;28;20116;-68
2020/12/31 03:15:13;;;;;;;47.28;26.25;;;2.30;94.60;;;;;;5027789;28;20029;-68
2020/12/31 03:17:38;;;;;;;44.33;25.42;;;2.20;94.50;;;;;;5028644;28;20091;-67
2020/12/31 03:20:05;;;;;;;46.70;26.95;;;2.10;94.70;;;;;;5024354;28;20445;-67
2020/12/31 03:22:30;;;;;;;58.22;29.02;;;2.10;95.00;;;;;;5024285;28;20036;-67
2020/12/31 03:24:56;;;;;;;50.00;28.60;;;2.10;95.20;;;;;;5023057;28;20033;-68
2020/12/31 03:27:22;;;;;;;49.42;28.67;;;2.10;95.20;;;;;;5027188;28;20052;-67
2020/12/31 03:29:47;;;;;;;48.60;27.15;;;2.10;95.20;;;;;;5025750;28;20176;-67
2020/12/31 03:32:13;;;;;;;57.10;27.98;;;2.10;95.20;;;;;;5022086;28;20087;-67
2020/12/31 03:34:38;;;;;;;46.53;26.67;;;2.20;94.90;;;;;;5026212;28;20037;-67
2020/12/31 03:37:04;;;;;;;49.95;26.10;;;2.10;94.90;;;;;;5026828;28;20026;-67
2020/12/31 03:39:29;;;;;;;48.00;28.58;;;2.10;95.10;;;;;;5026682;28;20124;-67
2020/12/31 03:41:55;;;;;;;47.33;27.20;;;2.10;95.00;;;;;;5027239;28;20068;-67
2020/12/31 03:44:20;;;;;;;47.80;27.08;;;2.20;94.90;;;;;;5017845;28;20052;-66
2020/12/31 03:46:46;;;;;;;51.47;27.08;;;2.20;95.00;;;;;;5027783;28;20033;-67
2020/12/31 03:49:12;;;;;;;50.00;26.30;;;2.20;94.90;;;;;;5026700;28;20032;-67
2020/12/31 03:51:37;;;;;;;47.13;26.63;;;2.20;94.90;;;;;;5026844;28;20511;-67
2020/12/31 03:54:03;;;;;;;48.88;27.98;;;2.20;94.80;;;;;;5024939;28;20029;-67
2020/12/31 03:56:28;;;;;;;47.35;27.40;;;2.10;94.80;;;;;;5025806;28;20067;-67
2020/12/31 03:58:54;;;;;;;50.13;27.50;;;2.20;94.80;;;;;;5026833;28;20029;-67
2020/12/31 04:01:19;;;;;;;52.13;28.20;;;2.10;94.90;;;;;;5026704;28;20155;-67
2020/12/31 04:03:45;;;;;;;53.65;29.25;;;2.10;95.00;;;;;;5013538;28;20029;-67
2020/12/31 04:06:13;;;;;;;51.13;27.63;;;2.10;94.90;;;;;;5025409;28;20090;-67
2020/12/31 04:08:38;;;;;;;52.08;27.50;;;2.10;94.90;;;;;;5022694;28;20029;-67
2020/12/31 04:11:05;;;;;;;49.13;28.50;;;2.10;95.00;;;;;;5025315;28;20497;-66
2020/12/31 04:13:30;;;;;;;49.83;27.75;;;2.10;94.90;;;;;;5026381;28;20034;-67
2020/12/31 04:15:56;;;;;;;52.72;29.13;;;2.00;95.00;;;;;;5026316;28;20025;-67
2020/12/31 04:18:21;;;;;;;53.38;27.55;;;2.10;95.20;;;;;;5025747;28;20430;-67
2020/12/31 04:20:47;;;;;;;52.92;29.67;;;2.10;94.80;;;;;;5023824;28;20070;-67
2020/12/31 04:23:13;;;;;;;54.28;28.33;;;2.10;95.00;;;;;;5020412;28;20028;-67
2020/12/31 04:25:38;;;;;;;49.90;28.88;;;2.00;95.10;;;;;;5017982;28;20532;-68
2020/12/31 04:28:04;;;;;;;54.20;29.35;;;2.00;95.20;;;;;;5027147;28;20517;-66
2020/12/31 04:30:29;;;;;;;48.63;28.95;;;1.90;95.10;;;;;;5017927;28;20029;-67
2020/12/31 04:32:55;;;;;;;51.90;29.08;;;1.80;95.20;;;;;;5024450;28;20319;-68
2020/12/31 04:35:20;;;;;;;59.42;29.65;;;1.80;95.40;;;;;;5026274;28;20032;-67
2020/12/31 04:37:46;;;;;;;52.13;29.00;;;1.80;95.50;;;;;;5027242;28;20038;-67
2020/12/31 04:40:11;;;;;;;54.25;29.23;;;1.70;95.40;;;;;;5025227;28;20065;-67
2020/12/31 04:42:37;;;;;;;61.22;30.08;;;1.70;95.70;;;;;;5022806;28;20030;-67
2020/12/31 04:45:05;;;;;;;65.32;30.63;;;1.70;95.70;;;;;;5025628;28;20133;-67
2020/12/31 04:47:46;;;;;;;57.63;30.08;;;1.70;95.80;;;;;;5026556;28;20060;-67
2020/12/31 04:50:12;;;;;;;63.55;31.75;;;1.70;95.80;;;;;;5026016;28;20028;-67
2020/12/31 04:52:38;;;;;;;63.63;30.90;;;1.70;95.80;;;;;;5025572;28;20071;-67
2020/12/31 04:55:05;;;;;;;60.92;30.20;;;1.50;95.70;;;;;;5025838;28;20037;-68
2020/12/31 04:57:31;;;;;;;63.38;32.75;;;1.60;96.00;;;;;;5025071;28;20538;-66
2020/12/31 04:59:58;;;;;;;58.85;31.67;;;1.60;95.90;;;;;;5025691;28;20473;-67
2020/12/31 05:02:24;;;;;;;61.15;30.27;;;1.60;95.90;;;;;;5021966;28;20014;-68
2020/12/31 05:04:50;;;;;;;56.25;29.90;;;1.50;95.80;;;;;;5014499;28;20562;-67
2020/12/31 05:07:17;;;;;;;60.85;30.92;;;1.50;96.00;;;;;;5026398;28;20078;-67
2020/12/31 05:09:43;;;;;;;57.08;27.80;;;1.50;96.00;;;;;;5023724;28;20366;-67
2020/12/31 05:12:08;;;;;;;66.88;32.08;;;1.50;96.10;;;;;;5024963;28;20030;-67
2020/12/31 05:14:36;;;;;;;69.10;31.95;;;1.50;96.00;;;;;;5025734;28;20029;-67
2020/12/31 05:17:16;;;;;;;60.85;30.33;;;1.50;95.90;;;;;;5008346;28;20072;-67
2020/12/31 05:19:42;;;;;;;57.30;28.98;;;1.50;95.90;;;;;;5024939;28;20403;-67
2020/12/31 05:22:11;;;;;;;65.45;29.90;;;1.40;95.90;;;;;;5023774;28;20037;-67
2020/12/31 05:24:38;;;;;;;67.05;29.58;;;1.40;95.90;;;;;;5019195;28;20076;-68
2020/12/31 05:27:24;;;;;;;62.95;29.23;;;1.30;95.90;;;;;;5006666;28;20111;-66
2020/12/31 05:29:58;;;;;;;69.35;30.27;;;1.30;96.10;;;;;;5022914;28;20100;-67
2020/12/31 05:32:25;;;;;;;69.82;30.98;;;1.30;96.10;;;;;;5021203;28;20025;-67
2020/12/31 05:34:55;;;;;;;65.60;29.38;;;1.30;96.20;;;;;;5018985;28;20033;-67
2020/12/31 05:37:22;;;;;;;73.82;30.88;;;1.30;96.10;;;;;;5021030;28;20033;-67
2020/12/31 05:40:03;;;;;;;65.85;30.13;;;1.30;96.10;;;;;;5023579;28;20091;-67
2020/12/31 05:42:30;;;;;;;65.32;29.55;;;1.30;96.00;;;;;;5026664;28;20340;-67
2020/12/31 05:45:06;;;;;;;67.85;31.77;;;1.30;96.10;;;;;;5017808;28;22127;-67
2020/12/31 05:47:32;;;;;;;68.00;28.13;;;1.30;96.20;;;;;;5023389;28;20212;-67
2020/12/31 05:49:58;;;;;;;67.13;28.50;;;1.30;96.00;;;;;;5020548;28;20107;-67
2020/12/31 05:52:37;;;;;;;64.97;29.17;;;1.30;96.00;;;;;;5008198;28;20597;-66
2020/12/31 05:55:05;;;;;;;67.78;30.17;;;1.40;96.00;;;;;;5002197;28;20466;-67
2020/12/31 05:57:45;;;;;;;61.33;29.55;;;1.40;96.00;;;;;;5008233;28;20534;-67
2020/12/31 06:00:13;;;;;;;54.83;27.33;;;1.50;96.00;;;;;;5004899;28;20029;-67
2020/12/31 06:02:48;;;;;;;58.53;28.05;;;1.60;95.80;;;;;;5005635;28;20207;-67
2020/12/31 06:05:15;;;;;;;53.33;27.55;;;1.60;95.80;;;;;;5005973;28;20037;-67
2020/12/31 06:07:51;;;;;;;49.78;26.83;;;1.70;95.80;;;;;;5005820;28;20029;-66
2020/12/31 06:10:25;;;;;;;55.17;24.92;;;1.70;95.60;;;;;;5009238;28;20174;-67
2020/12/31 06:12:59;;;;;;;48.20;25.70;;;1.80;95.50;;;;;;5006521;28;20041;-66
2020/12/31 06:15:31;;;;;;;46.63;24.20;;;1.90;95.30;;;;;;5003257;28;20199;-65
2020/12/31 06:17:58;;;;;;;35.40;21.23;;;2.10;94.90;;;;;;5006494;28;20127;-66
2020/12/31 06:20:26;;;;;;;39.67;21.55;;;2.10;94.70;;;;;;5007499;28;20125;-66
2020/12/31 06:23:07;;;;;;;40.22;22.95;;;2.10;94.70;;;;;;5010965;28;20045;-67
2020/12/31 06:25:39;;;;;;;36.65;20.70;;;2.10;94.70;;;;;;5009658;28;20018;-66
2020/12/31 06:28:12;;;;;;;32.10;19.50;;;2.30;94.30;;;;;;5006491;28;20458;-66
2020/12/31 06:30:40;;;;;;;34.35;19.92;;;2.30;94.10;;;;;;5009398;28;20074;-66
2020/12/31 06:33:27;;;;;;;32.72;18.67;;;2.30;94.10;;;;;;5005319;28;20028;-66
2020/12/31 06:36:01;;;;;;;30.88;17.58;;;2.30;94.00;;;;;;5009219;28;20132;-65
2020/12/31 06:38:30;;;;;;;29.83;16.88;;;2.40;93.50;;;;;;5009316;28;20035;-66
2020/12/31 06:40:55;;;;;;;26.98;16.88;;;2.40;93.40;;;;;;5011340;28;20342;-66
2020/12/31 06:43:30;;;;;;;27.65;16.05;;;2.50;93.30;;;;;;5022425;28;20040;-66
2020/12/31 06:45:57;;;;;;;26.40;16.38;;;2.50;93.30;;;;;;5022531;28;20032;-66
2020/12/31 06:48:26;;;;;;;24.63;14.93;;;2.50;93.50;;;;;;5020581;28;20540;-66
2020/12/31 06:50:59;;;;;;;23.58;14.55;;;2.50;93.70;;;;;;5027441;28;20038;-66
2020/12/31 06:53:43;;;;;;;22.73;13.88;;;2.50;93.20;;;;;;5028701;28;20091;-67
2020/12/31 06:56:10;;;;;;;20.77;13.57;;;2.60;93.00;;;;;;5026885;28;20033;-66
2020/12/31 06:58:39;;;;;;;21.85;13.70;;;2.60;93.10;;;;;;5028521;28;20048;-66
2020/12/31 07:01:29;;;;;;;21.65;13.23;;;2.60;93.00;;;;;;5018051;28;20043;-66
2020/12/31 07:03:56;;;;;;;19.35;12.68;;;2.70;92.80;;;;;;5017464;28;20441;-66
2020/12/31 07:06:22;;;;;;;23.35;12.85;;;2.60;93.00;;;;;;5027734;28;20029;-66
2020/12/31 07:09:10;;;;;;;20.40;12.95;;;2.70;92.20;;;;;;5021509;28;20056;-66
2020/12/31 07:11:40;;;;;;;20.40;12.55;;;2.70;92.60;;;;;;5025496;28;20056;-66
2020/12/31 07:14:18;;;;;;;22.00;12.40;;;2.70;92.90;;;;;;5020695;28;20029;-66
2020/12/31 07:16:58;;;;;;;21.05;12.05;;;2.70;92.70;;;;;;5021961;28;20052;-66
2020/12/31 07:19:45;;;;;;;18.23;11.75;;;2.70;92.70;;;;;;5021634;28;20593;-66
2020/12/31 07:22:10;;;;;;;18.42;11.65;;;2.70;92.60;;;;;;5026977;28;20106;-66
2020/12/31 07:24:55;;;;;;;18.95;11.57;;;2.70;92.50;;;;;;5026625;28;20294;-66
2020/12/31 07:27:29;;;;;;;18.25;11.65;;;2.80;92.30;;;;;;5025009;28;20112;-67
2020/12/31 07:30:07;;;;;;;17.92;10.55;;;2.70;92.80;;;;;;5027019;28;20450;-66
2020/12/31 07:32:58;;;;;;;15.90;10.68;;;2.80;92.30;;;;;;5025331;28;20105;-66
2020/12/31 07:35:34;;;;;;;16.23;10.57;;;2.80;92.40;;;;;;5027880;28;20048;-66
2020/12/31 07:38:07;;;;;;;17.05;10.23;;;2.80;92.50;;;;;;5038209;28;20030;-66
2020/12/31 07:40:41;;;;;;;14.80;9.55;;;2.80;92.40;;;;;;5022749;28;20032;-66
2020/12/31 07:43:09;;;;;;;16.27;10.05;;;2.80;92.30;;;;;;5023741;28;20181;-67
2020/12/31 07:45:35;;;;;;;15.02;9.43;;;2.80;92.60;;;;;;5027572;28;20116;-67
2020/12/31 07:48:01;;;;;;;15.00;10.10;;;2.70;92.70;;;;;;5027122;28;20096;-67
2020/12/31 07:50:28;;;;;;;16.88;9.65;;;2.80;92.70;;;;;;5026389;28;20654;-67
2020/12/31 07:52:54;;;;;;;15.57;10.20;;;2.80;92.70;;;;;;5023565;28;20098;-67
2020/12/31 07:55:20;;;;;;;16.83;10.00;;;2.80;92.70;;;;;;5022987;28;20033;-69
2020/12/31 07:57:45;;;;;;;19.85;10.45;;;2.80;92.80;;;;;;5019335;28;20021;-66
2020/12/31 08:00:18;;;;;;;15.32;9.50;;;2.70;92.80;;;;;;5021057;28;20108;-67
2020/12/31 08:02:52;;;;;;;14.45;9.30;;;2.80;92.80;;;;;;5021319;28;20056;-67
2020/12/31 08:05:23;;;;;;;14.73;9.55;;;2.80;92.80;;;;;;5020765;28;20045;-67
2020/12/31 08:07:56;;;;;;;14.23;9.82;;;2.80;92.70;;;;;;5021375;28;20109;-67
2020/12/31 08:10:23;;;;;;;14.82;9.73;;;2.80;92.80;;;;;;5024042;28;20117;-66
2020/12/31 08:13:01;;;;;;;14.00;9.63;;;2.80;93.00;;;;;;5025009;28;20130;-66
2020/12/31 08:15:27;;;;;;;14.35;9.25;;;2.80;93.10;;;;;;5018139;28;20155;-67
2020/12/31 08:17:55;;;;;;;15.52;10.23;;;2.80;92.80;;;;;;5022148;28;20544;-67
2020/12/31 08:20:23;;;;;;;14.43;9.88;;;2.70;93.30;;;;;;5019638;28;20044;-66
2020/12/31 08:22:57;;;;;;;15.32;10.05;;;2.70;93.30;;;;;;5020470;28;20485;-67
2020/12/31 08:25:31;;;;;;;14.05;9.45;;;2.80;93.60;;;;;;5024585;28;20045;-67
2020/12/31 08:27:57;;;;;;;15.45;9.45;;;2.70;93.50;;;;;;5016088;28;20029;-67
2020/12/31 08:30:23;;;;;;;14.63;9.20;;;2.80;93.40;;;;;;5022926;28;20053;-67
2020/12/31 08:32:51;;;;;;;16.42;9.93;;;2.70;93.60;;;;;;5024875;28;20059;-67
2020/12/31 08:35:32;;;;;;;16.88;10.00;;;2.70;93.80;;;;;;5024005;28;20080;-67
2020/12/31 08:38:18;;;;;;;15.03;10.13;;;2.70;93.60;;;;;;5018430;28;20093;-67
2020/12/31 08:40:53;;;;;;;16.15;10.02;;;2.70;93.80;;;;;;5019149;28;20026;-67
2020/12/31 08:43:32;;;;;;;16.45;9.73;;;2.70;93.80;;;;;;5015751;28;20121;-67
2020/12/31 08:45:59;;;;;;;13.93;9.63;;;2.70;94.10;;;;;;5025567;28;20026;-66
2020/12/31 08:48:33;;;;;;;13.18;9.23;;;2.70;94.10;;;;;;5020546;28;20029;-67
2020/12/31 08:51:09;;;;;;;16.63;9.50;;;2.70;94.20;;;;;;5025946;28;20036;-67
2020/12/31 08:53:51;;;;;;;15.65;9.57;;;2.70;93.90;;;;;;5021006;28;20450;-67
2020/12/31 08:56:18;;;;;;;14.55;9.63;;;2.80;94.00;;;;;;5023116;28;20057;-67
2020/12/31 08:58:44;;;;;;;13.35;8.68;;;2.80;93.80;;;;;;5063935;28;20433;-66
2020/12/31 09:01:30;;;;;;;15.35;9.75;;;2.80;94.00;;;;;;5054092;28;20089;-66
2020/12/31 09:04:08;;;;;;;13.63;9.05;;;2.80;94.20;;;;;;5066804;28;20104;-67
2020/12/31 09:06:34;;;;;;;17.65;10.30;;;2.70;94.40;;;;;;5059826;28;20465;-67
2020/12/31 09:09:00;;;;;;;14.13;8.85;;;2.80;94.60;;;;;;5047473;28;20392;-67
2020/12/31 09:11:27;;;;;;;17.30;10.25;;;2.70;94.30;;;;;;5068465;28;20058;-67
2020/12/31 09:13:55;;;;;;;22.08;10.88;;;2.70;94.40;;;;;;5070254;28;20449;-67
2020/12/31 09:16:28;;;;;;;15.38;10.13;;;2.70;94.60;;;;;;5066460;28;20036;-67
2020/12/31 09:19:00;;;;;;;16.02;9.88;;;2.70;94.70;;;;;;5068501;28;20078;-67
2020/12/31 09:21:29;;;;;;;16.80;10.15;;;2.70;94.80;;;;;;5055324;28;20119;-67
2020/12/31 09:23:55;;;;;;;15.32;9.68;;;2.80;94.70;;;;;;5066363;28;20039;-67
2020/12/31 09:26:28;;;;;;;14.75;9.35;;;2.80;94.90;;;;;;5085420;28;20377;-67
2020/12/31 09:28:55;;;;;;;15.10;9.65;;;2.80;94.60;;;;;;5061510;28;20033;-67
2020/12/31 09:31:23;;;;;;;16.85;10.63;;;2.70;94.60;;;;;;5054144;28;20037;-66
2020/12/31 09:33:50;;;;;;;14.77;10.00;;;2.80;94.70;;;;;;5055573;28;20100;-67
2020/12/31 09:36:24;;;;;;;15.07;10.18;;;2.80;94.60;;;;;;5037683;28;20116;-66
2020/12/31 09:38:51;;;;;;;14.30;9.18;;;2.80;94.80;;;;;;5083497;28;20058;-67
2020/12/31 09:41:17;;;;;;;15.68;10.00;;;2.90;94.90;;;;;;5086722;28;20086;-66
2020/12/31 09:43:42;;;;;;;15.82;10.18;;;2.90;94.80;;;;;;5082718;28;20031;-67
2020/12/31 09:46:08;;;;;;;17.15;10.32;;;2.80;94.80;;;;;;5072265;28;20396;-66
2020/12/31 09:48:35;;;;;;;16.02;9.43;;;2.80;94.90;;;;;;5062448;28;20032;-66
2020/12/31 09:51:01;;;;;;;16.23;9.65;;;2.80;94.70;;;;;;5065164;28;20032;-67
2020/12/31 09:53:26;;;;;;;18.08;9.80;;;2.90;94.80;;;;;;5065361;28;20419;-67
2020/12/31 09:55:52;;;;;;;13.38;8.63;;;2.90;95.00;;;;;;5065536;28;20036;-67
2020/12/31 09:58:18;;;;;;;17.60;9.77;;;2.90;95.00;;;;;;5071230;28;20024;-66
2020/12/31 10:00:43;;;;;;;16.50;10.15;;;2.90;95.10;;;;;;5066395;28;20110;-67
2020/12/31 10:03:09;;;;;;;14.57;9.02;;;2.90;95.20;;;;;;5062254;28;20433;-67
2020/12/31 10:05:34;;;;;;;15.32;9.70;;;2.90;94.80;;;;;;5057172;28;20036;-67
2020/12/31 10:08:00;;;;;;;15.32;9.52;;;2.90;95.00;;;;;;5059609;28;20202;-67
2020/12/31 10:10:26;;;;;;;15.32;9.02;;;2.90;94.80;;;;;;5059713;28;20251;-67
2020/12/31 10:12:51;;;;;;;14.85;9.57;;;3.00;95.10;;;;;;5052666;28;20024;-66
2020/12/31 10:15:17;;;;;;;14.95;8.90;;;2.90;95.00;;;;;;5065868;28;20045;-67
2020/12/31 10:17:42;;;;;;;14.93;9.00;;;2.90;95.00;;;;;;5045804;28;20031;-67
2020/12/31 10:20:08;;;;;;;14.15;9.52;;;2.80;94.90;;;;;;5072776;28;20017;-66
2020/12/31 10:22:34;;;;;;;13.23;9.02;;;2.90;95.10;;;;;;5066130;28;20044;-67
2020/12/31 10:24:59;;;;;;;15.05;9.68;;;2.90;95.20;;;;;;5063429;28;20032;-67
2020/12/31 10:27:25;;;;;;;15.98;9.35;;;2.90;95.30;;;;;;5061893;28;20900;-67
2020/12/31 10:29:52;;;;;;;15.05;9.38;;;2.90;95.20;;;;;;5067508;28;20035;-67
2020/12/31 10:32:18;;;;;;;14.40;9.48;;;2.90;95.10;;;;;;5062501;28;20040;-66
2020/12/31 10:34:43;;;;;;;16.95;9.48;;;2.90;95.20;;;;;;5071353;28;20033;-66
2020/12/31 10:37:09;;;;;;;14.95;9.32;;;2.80;95.30;;;;;;5065566;28;20465;-67
2020/12/31 10:39:35;;;;;;;13.45;8.98;;;2.90;95.20;;;;;;5063929;28;20073;-66
2020/12/31 10:42:00;;;;;;;15.48;9.90;;;2.90;95.20;;;;;;5060900;28;20095;-67
2020/12/31 10:44:26;;;;;;;12.63;8.73;;;2.90;95.30;;;;;;5063688;28;20025;-66
2020/12/31 10:46:51;;;;;;;13.50;9.25;;;2.90;95.40;;;;;;5065119;28;20538;-67
2020/12/31 10:49:17;;;;;;;15.25;9.32;;;2.90;95.30;;;;;;5070161;28;20100;-67
2020/12/31 10:51:42;;;;;;;14.63;9.75;;;2.90;95.20;;;;;;5064911;28;20043;-67
2020/12/31 10:54:09;;;;;;;13.73;8.57;;;3.00;95.40;;;;;;5049241;28;20447;-67
2020/12/31 10:56:35;;;;;;;14.65;9.70;;;3.00;95.20;;;;;;5058765;28;20554;-67
2020/12/31 10:59:01;;;;;;;15.18;9.48;;;3.00;95.20;;;;;;5061498;28;20072;-67
2020/12/31 11:01:26;;;;;;;14.73;9.32;;;3.00;95.20;;;;;;5043356;28;20438;-67
2020/12/31 11:03:52;;;;;;;16.27;9.48;;;3.00;95.20;;;;;;5061647;28;20032;-67
2020/12/31 11:06:24;;;;;;;13.90;8.55;;;3.10;95.40;;;;;;5049065;28;20119;-67
2020/12/31 11:08:50;;;;;;;13.55;8.55;;;3.10;95.30;;;;;;5066520;28;20399;-67
2020/12/31 11:11:23;;;;;;;14.88;8.27;;;3.10;95.20;;;;;;5067658;28;20326;-67
2020/12/31 11:13:49;;;;;;;12.82;8.63;;;3.10;94.50;;;;;;5067045;28;20028;-67
2020/12/31 11:16:15;;;;;;;14.15;8.73;;;3.10;94.60;;;;;;5075602;28;20050;-67
2020/12/31 11:18:44;;;;;;;11.57;8.00;;;3.10;94.30;;;;;;5068923;28;20120;-67
2020/12/31 11:21:17;;;;;;;11.85;7.88;;;3.10;93.90;;;;;;5056386;28;20020;-67
2020/12/31 11:23:43;;;;;;;12.05;8.23;;;3.10;94.40;;;;;;5062537;28;20094;-67
2020/12/31 11:26:18;;;;;;;13.32;8.15;;;3.10;94.20;;;;;;5065176;28;20103;-67
2020/12/31 11:28:48;;;;;;;12.45;8.25;;;3.10;93.90;;;;;;5066300;28;20016;-67
2020/12/31 11:31:14;;;;;;;11.02;7.32;;;3.10;93.80;;;;;;5059564;28;20503;-66
2020/12/31 11:33:44;;;;;;;13.80;7.82;;;3.10;94.10;;;;;;5041782;28;20130;-66
2020/12/31 11:36:10;;;;;;;12.73;7.97;;;3.10;94.30;;;;;;5071083;28;20040;-67
2020/12/31 11:38:37;;;;;;;11.75;7.55;;;3.10;94.30;;;;;;5068611;28;20089;-67
2020/12/31 11:41:04;;;;;;;11.00;7.25;;;3.10;94.00;;;;;;5058242;28;20052;-67
2020/12/31 11:43:30;;;;;;;12.27;7.18;;;3.10;94.10;;;;;;5058225;28;20101;-67
2020/12/31 11:45:55;;;;;;;11.73;7.95;;;3.10;93.80;;;;;;5074881;28;20032;-67
2020/12/31 11:48:21;;;;;;;11.90;8.93;;;3.10;93.60;;;;;;5074447;28;20361;-67
2020/12/31 11:50:48;;;;;;;18.63;12.38;;;3.10;93.70;;;;;;5072411;28;20020;-67
2020/12/31 11:53:14;;;;;;;15.15;8.73;;;3.10;93.70;;;;;;5065941;28;20386;-66
2020/12/31 11:55:39;;;;;;;15.07;9.95;;;3.00;93.60;;;;;;5077013;28;20324;-67
2020/12/31 11:58:05;;;;;;;14.90;9.77;;;3.00;93.70;;;;;;5076409;28;20070;-67
2020/12/31 12:00:31;;;;;;;13.32;8.60;;;3.00;93.80;;;;;;5069801;28;20024;-66
2020/12/31 12:02:56;;;;;;;26.17;18.48;;;3.00;93.80;;;;;;5053064;28;20051;-66
2020/12/31 12:05:22;;;;;;;16.10;8.40;;;3.00;93.80;;;;;;5066874;28;20045;-66
2020/12/31 12:07:47;;;;;;;16.17;9.73;;;3.10;94.00;;;;;;5067553;28;20051;-66
2020/12/31 12:10:13;;;;;;;16.13;10.85;;;3.00;94.00;;;;;;5065706;28;20028;-66
2020/12/31 12:12:39;;;;;;;20.67;12.65;;;3.10;93.90;;;;;;5050389;28;20032;-69
2020/12/31 12:15:05;;;;;;;14.27;9.55;;;3.10;93.80;;;;;;5060565;28;20098;-66
2020/12/31 12:17:31;;;;;;;13.23;8.40;;;3.10;93.90;;;;;;5081420;28;20093;-66
2020/12/31 12:19:57;;;;;;;13.88;8.50;;;3.10;94.10;;;;;;5047116;28;20556;-66
2020/12/31 12:22:24;;;;;;;12.00;7.90;;;3.10;93.80;;;;;;5066121;28;20017;-66
2020/12/31 12:24:49;;;;;;;11.27;7.57;;;3.20;93.70;;;;;;5067032;28;20032;-66
2020/12/31 12:27:15;;;;;;;10.63;7.32;;;3.20;93.40;;;;;;5065142;28;20059;-68
2020/12/31 12:29:41;;;;;;;11.93;7.65;;;3.20;93.70;;;;;;5064713;28;20330;-68
2020/12/31 12:32:10;;;;;;;11.20;7.80;;;3.20;93.80;;;;;;5065056;28;20116;-68
2020/12/31 12:34:37;;;;;;;13.65;8.70;;;3.10;93.30;;;;;;5074098;28;20463;-68
2020/12/31 12:37:03;;;;;;;11.43;8.00;;;3.20;93.70;;;;;;5065620;28;20032;-69
2020/12/31 12:39:28;;;;;;;12.18;7.28;;;3.10;93.70;;;;;;5068930;28;20047;-68
2020/12/31 12:41:56;;;;;;;12.18;7.47;;;3.10;93.80;;;;;;5060623;28;20246;-68
2020/12/31 12:44:22;;;;;;;12.05;7.40;;;3.10;93.50;;;;;;5072064;28;20102;-68
2020/12/31 12:46:47;;;;;;;12.60;8.23;;;3.10;93.50;;;;;;5071917;28;20116;-68